Terminal Aerodrome Forecast
Issued by NWS Northern Indiana

Home | Current Version | Previous Version | Graphics & Text | Print | Product List | Glossary On
Versions: 1 2 3 4 5 6 7 8 9 10 11 12 13 14 15 16
000
FTUS43 KIWX 240533
TAFFWA
TAF
KFWA 240533Z 2406/2506 24004KT P6SM BKN060
     FM241100 31006KT P6SM SCT250
     FM241600 28012G22KT P6SM BKN050
     FM250000 27007KT P6SM SCT250=

USA.gov is the U.S. government's official web portal to all federal, state and local government web resources and services.